Time;durP1;ratioP1;P1;durP2;ratioP2;P2;SDS_P1;SDS_P2;PMS_P1;PMS_P2;Temp;Humidity;BMP_temperature;BMP_pressure;BME280_temperature;BME280_humidity;BME280_pressure;Samples;Min_cycle;Max_cycle;Signal;HPM_P1;HPM_P2
2022/10/08 00:01:14;;;;;;;0.98;0.77;;;10.70;99.90;;;;;;5012493;28;20211;-73
2022/10/08 00:03:43;;;;;;;0.63;0.63;;;10.70;99.90;;;;;;5012534;28;20821;-76
2022/10/08 00:06:13;;;;;;;0.60;0.60;;;10.80;99.90;;;;;;5012604;28;20198;-75
2022/10/08 00:08:42;;;;;;;0.60;0.60;;;10.70;99.90;;;;;;5012510;28;20244;-75
2022/10/08 00:11:14;;;;;;;0.50;0.50;;;10.80;99.90;;;;;;5012411;28;20274;-74
2022/10/08 00:13:42;;;;;;;0.60;0.60;;;10.70;99.90;;;;;;5012335;28;20203;-74
2022/10/08 00:16:15;;;;;;;0.50;0.50;;;10.70;99.90;;;;;;4994811;28;20284;-75
2022/10/08 00:18:43;;;;;;;2.13;1.13;;;10.70;99.90;;;;;;5004181;28;20199;-72
2022/10/08 00:21:15;;;;;;;0.90;0.90;;;10.70;99.90;;;;;;4972653;28;20717;-74
2022/10/08 00:23:42;;;;;;;0.60;0.60;;;10.70;99.90;;;;;;4972796;28;20200;-74
2022/10/08 00:26:09;;;;;;;5.88;1.15;;;10.70;99.90;;;;;;4972779;28;20651;-73
2022/10/08 00:28:36;;;;;;;0.50;0.50;;;10.70;99.90;;;;;;4973139;28;20192;-73
2022/10/08 00:31:08;;;;;;;0.50;0.50;;;10.70;99.90;;;;;;4955829;28;20215;-73
2022/10/08 00:33:37;;;;;;;0.98;0.98;;;10.70;99.90;;;;;;4972993;28;20203;-74
2022/10/08 00:36:05;;;;;;;0.80;0.80;;;10.70;99.90;;;;;;4973173;28;20283;-72
2022/10/08 00:38:30;;;;;;;0.60;0.60;;;10.70;99.90;;;;;;4981684;28;20289;-73
2022/10/08 00:40:58;;;;;;;0.50;0.50;;;10.70;99.90;;;;;;4992471;28;20211;-73
2022/10/08 00:43:57;;;;;;;0.70;0.70;;;10.60;99.90;;;;;;4992368;28;20192;-73
2022/10/08 00:46:47;;;;;;;0.50;0.50;;;10.50;99.90;;;;;;4980345;28;20212;-73
2022/10/08 00:49:19;;;;;;;0.90;0.90;;;10.50;99.90;;;;;;4996902;28;20207;-73
2022/10/08 00:51:54;;;;;;;0.57;0.57;;;10.40;99.90;;;;;;5012110;28;20182;-73
2022/10/08 00:54:22;;;;;;;0.60;0.60;;;10.40;99.90;;;;;;4994409;28;20194;-72
2022/10/08 00:56:53;;;;;;;1.10;0.75;;;10.40;99.90;;;;;;5008498;28;20321;-74
2022/10/08 00:59:19;;;;;;;0.60;0.60;;;10.30;99.90;;;;;;5046886;28;20274;-73
2022/10/08 01:01:45;;;;;;;0.60;0.60;;;10.40;99.90;;;;;;5041226;28;20202;-68
2022/10/08 01:04:12;;;;;;;0.50;0.50;;;10.30;99.90;;;;;;5011951;28;20198;-69
2022/10/08 01:06:38;;;;;;;0.60;0.60;;;10.30;99.90;;;;;;5050327;23;20291;-75
2022/10/08 01:12:01;;;;;;;0.60;0.60;;;10.30;99.90;;;;;;5046814;28;20698;-72
2022/10/08 01:14:37;;;;;;;0.50;0.50;;;10.30;99.90;;;;;;5046219;28;20209;-72
2022/10/08 01:17:14;;;;;;;1.20;1.02;;;10.20;99.90;;;;;;5051000;28;20189;-72
2022/10/08 01:19:59;;;;;;;0.60;0.60;;;10.20;99.90;;;;;;5050652;28;20608;-71
2022/10/08 01:22:25;;;;;;;0.65;0.65;;;10.20;99.90;;;;;;5050805;28;20194;-71
2022/10/08 01:27:41;;;;;;;0.73;0.73;;;10.20;99.90;;;;;;5050723;28;20343;-72
2022/10/08 01:30:14;;;;;;;0.80;0.80;;;10.20;99.90;;;;;;5050727;28;20677;-71
2022/10/08 01:32:47;;;;;;;1.42;1.20;;;10.20;99.90;;;;;;5032723;28;20233;-71
2022/10/08 01:35:24;;;;;;;1.88;0.98;;;10.20;99.90;;;;;;5050592;28;20272;-72
2022/10/08 01:37:54;;;;;;;0.57;0.57;;;10.20;99.90;;;;;;5052543;28;20211;-71
2022/10/08 01:40:27;;;;;;;0.95;0.95;;;10.10;99.90;;;;;;5052872;28;20210;-71
2022/10/08 01:42:57;;;;;;;0.85;0.85;;;10.10;99.90;;;;;;5054536;28;20233;-72
2022/10/08 01:45:30;;;;;;;0.60;0.60;;;10.10;99.90;;;;;;5058454;28;20185;-72
2022/10/08 01:47:56;;;;;;;0.60;0.60;;;10.00;99.90;;;;;;5040402;28;20197;-72
2022/10/08 01:50:32;;;;;;;0.68;0.68;;;10.00;99.90;;;;;;5052683;28;20198;-71
2022/10/08 01:53:03;;;;;;;2.58;1.55;;;10.00;99.90;;;;;;5054218;28;20663;-72
2022/10/08 01:55:38;;;;;;;0.60;0.60;;;9.90;99.90;;;;;;5054127;28;20664;-72
2022/10/08 01:58:27;;;;;;;0.60;0.60;;;9.90;99.90;;;;;;5052776;28;20282;-72
2022/10/08 02:00:57;;;;;;;0.50;0.50;;;9.90;99.90;;;;;;5053283;28;20220;-72
2022/10/08 02:03:22;;;;;;;0.60;0.60;;;9.80;99.90;;;;;;5053754;28;20556;-72
2022/10/08 02:05:52;;;;;;;0.70;0.70;;;9.80;99.90;;;;;;5036144;28;20284;-72
2022/10/08 02:08:18;;;;;;;0.93;0.93;;;9.70;99.90;;;;;;5053557;28;20280;-72
2022/10/08 02:10:44;;;;;;;2.28;1.30;;;9.70;99.90;;;;;;5053380;28;20304;-72
2022/10/08 02:13:10;;;;;;;0.50;0.50;;;9.60;99.90;;;;;;5053982;28;20207;-72
2022/10/08 02:16:01;;;;;;;1.52;0.95;;;9.60;99.90;;;;;;5035522;28;20232;-72
2022/10/08 02:18:36;;;;;;;0.60;0.60;;;9.50;99.90;;;;;;5063485;28;20212;-72
2022/10/08 02:21:09;;;;;;;0.60;0.60;;;9.50;99.90;;;;;;5053452;28;20212;-72
2022/10/08 02:23:43;;;;;;;4.38;1.95;;;9.50;99.90;;;;;;5053457;28;20185;-72
2022/10/08 02:26:13;;;;;;;0.55;0.55;;;9.30;99.90;;;;;;5053617;28;20189;-71
2022/10/08 02:28:48;;;;;;;0.63;0.63;;;9.20;99.90;;;;;;5053310;28;20196;-71
2022/10/08 02:31:19;;;;;;;0.60;0.60;;;9.20;99.90;;;;;;5053282;28;20576;-72
2022/10/08 02:33:58;;;;;;;0.60;0.60;;;9.10;99.90;;;;;;5053466;28;20197;-72
2022/10/08 02:36:36;;;;;;;3.15;1.35;;;9.00;99.90;;;;;;5051919;28;20197;-71
2022/10/08 02:39:04;;;;;;;0.50;0.50;;;8.90;99.90;;;;;;5053361;28;20671;-71
2022/10/08 02:41:36;;;;;;;1.13;1.10;;;8.80;99.90;;;;;;5055973;28;20287;-72
2022/10/08 02:44:05;;;;;;;0.50;0.50;;;8.80;99.90;;;;;;5073429;28;20196;-72
2022/10/08 02:46:35;;;;;;;0.50;0.50;;;8.70;99.90;;;;;;5059354;28;20251;-71
2022/10/08 02:49:17;;;;;;;0.60;0.60;;;8.60;99.90;;;;;;5052724;28;20204;-72
2022/10/08 02:51:49;;;;;;;0.70;0.70;;;8.60;99.90;;;;;;5053257;28;20208;-72
2022/10/08 02:54:18;;;;;;;0.50;0.50;;;8.50;99.90;;;;;;5053111;28;20382;-71
2022/10/08 02:56:53;;;;;;;0.52;0.52;;;8.60;99.90;;;;;;5034996;28;20573;-71
2022/10/08 02:59:21;;;;;;;2.38;1.67;;;8.60;99.90;;;;;;5052761;28;20664;-71
2022/10/08 03:01:55;;;;;;;0.50;0.50;;;8.50;99.90;;;;;;5052058;28;20193;-71
2022/10/08 03:04:20;;;;;;;0.70;0.70;;;8.60;99.90;;;;;;5052464;28;20216;-72
2022/10/08 03:06:47;;;;;;;0.60;0.60;;;8.60;99.90;;;;;;5051444;28;20229;-71
2022/10/08 03:09:14;;;;;;;0.50;0.50;;;8.70;99.90;;;;;;5051390;28;20210;-71
2022/10/08 03:11:41;;;;;;;0.80;0.80;;;8.70;99.90;;;;;;5042295;28;20328;-72
2022/10/08 03:14:11;;;;;;;0.60;0.60;;;8.70;99.90;;;;;;5014965;28;20297;-72
2022/10/08 03:16:39;;;;;;;0.68;0.68;;;8.80;99.90;;;;;;5032478;28;20617;-74
2022/10/08 03:19:07;;;;;;;0.60;0.60;;;8.80;99.90;;;;;;5036252;28;20200;-71
2022/10/08 03:21:35;;;;;;;0.80;0.80;;;8.80;99.90;;;;;;5052275;28;20216;-71
2022/10/08 03:24:00;;;;;;;0.70;0.70;;;8.80;99.90;;;;;;5052440;28;20186;-72
2022/10/08 03:26:26;;;;;;;0.70;0.70;;;8.80;99.90;;;;;;5052209;28;20190;-72
2022/10/08 03:28:52;;;;;;;0.50;0.50;;;8.80;99.90;;;;;;5052364;28;20690;-71
2022/10/08 03:31:18;;;;;;;1.00;1.00;;;8.80;99.90;;;;;;5051861;28;20544;-71
2022/10/08 03:33:49;;;;;;;1.77;1.42;;;8.70;99.90;;;;;;5052303;28;20194;-72
2022/10/08 03:36:15;;;;;;;0.60;0.60;;;8.70;99.90;;;;;;5052245;28;20198;-72
2022/10/08 03:38:41;;;;;;;0.60;0.60;;;8.70;99.90;;;;;;5062441;28;20193;-72
2022/10/08 03:41:08;;;;;;;0.60;0.60;;;8.70;99.90;;;;;;5072080;28;20208;-72
2022/10/08 03:43:34;;;;;;;0.60;0.60;;;8.60;99.90;;;;;;5053864;28;20204;-72
2022/10/08 03:46:00;;;;;;;1.00;0.93;;;8.50;99.90;;;;;;5044758;28;20227;-72
2022/10/08 03:48:26;;;;;;;0.60;0.60;;;8.40;99.90;;;;;;5051783;28;20729;-72
2022/10/08 03:50:57;;;;;;;0.60;0.60;;;8.30;99.90;;;;;;5050562;28;20229;-71
2022/10/08 03:53:24;;;;;;;0.60;0.60;;;8.20;99.90;;;;;;5051636;28;20668;-71
2022/10/08 03:55:50;;;;;;;1.15;1.05;;;8.00;99.90;;;;;;5051886;28;20651;-72
2022/10/08 03:58:16;;;;;;;0.75;0.75;;;7.90;99.90;;;;;;5033890;28;20226;-71
2022/10/08 04:00:42;;;;;;;0.60;0.60;;;7.80;99.90;;;;;;5050649;28;20201;-71
2022/10/08 04:03:08;;;;;;;0.57;0.57;;;7.80;99.90;;;;;;5034202;28;20301;-71
2022/10/08 04:05:35;;;;;;;0.60;0.60;;;7.70;99.90;;;;;;5033566;28;20284;-71
2022/10/08 04:08:01;;;;;;;0.65;0.65;;;7.70;99.90;;;;;;5051637;28;20236;-71
2022/10/08 04:10:26;;;;;;;0.63;0.63;;;7.60;99.90;;;;;;5051145;28;20241;-71
2022/10/08 04:12:52;;;;;;;0.70;0.70;;;7.60;99.90;;;;;;5051374;28;20562;-72
2022/10/08 04:15:19;;;;;;;0.60;0.60;;;7.50;99.90;;;;;;5051396;28;20612;-72
2022/10/08 04:17:44;;;;;;;0.70;0.70;;;7.40;99.90;;;;;;5051347;28;20224;-72
2022/10/08 04:20:10;;;;;;;0.55;0.55;;;7.20;99.90;;;;;;5051229;28;20204;-72
2022/10/08 04:22:35;;;;;;;0.50;0.50;;;7.10;99.90;;;;;;5051129;28;20274;-71
2022/10/08 04:25:01;;;;;;;0.75;0.75;;;7.10;99.90;;;;;;5051457;28;20186;-71
2022/10/08 04:27:27;;;;;;;0.50;0.50;;;7.00;99.90;;;;;;5051439;28;20182;-71
2022/10/08 04:29:52;;;;;;;1.05;0.93;;;7.00;99.90;;;;;;5051375;28;20197;-71
2022/10/08 04:32:18;;;;;;;0.90;0.90;;;6.90;99.90;;;;;;5051207;28;20562;-71
2022/10/08 04:34:43;;;;;;;0.45;0.45;;;6.80;99.90;;;;;;5060025;28;20213;-71
2022/10/08 04:37:09;;;;;;;0.60;0.60;;;6.70;99.90;;;;;;5071294;28;20211;-70
2022/10/08 04:39:35;;;;;;;0.40;0.40;;;6.60;99.90;;;;;;5071252;28;20675;-71
2022/10/08 04:42:00;;;;;;;0.60;0.60;;;6.50;99.90;;;;;;5063911;28;20212;-71
2022/10/08 04:44:26;;;;;;;0.50;0.50;;;6.40;99.90;;;;;;5051044;28;20193;-72
2022/10/08 04:46:52;;;;;;;0.55;0.55;;;6.40;99.90;;;;;;5051181;28;20190;-72
2022/10/08 04:49:18;;;;;;;0.60;0.60;;;6.30;99.90;;;;;;5051193;28;20197;-72
2022/10/08 04:51:44;;;;;;;0.40;0.40;;;6.20;99.90;;;;;;5051332;28;20246;-72
2022/10/08 04:54:10;;;;;;;0.40;0.40;;;6.10;99.90;;;;;;5064103;28;20224;-72
2022/10/08 04:56:35;;;;;;;0.60;0.60;;;6.00;99.90;;;;;;5070956;28;20188;-72
2022/10/08 04:59:01;;;;;;;2.05;1.80;;;6.00;99.90;;;;;;5071187;28;20195;-72
2022/10/08 05:01:28;;;;;;;0.70;0.70;;;6.00;99.90;;;;;;5070748;28;20205;-72
2022/10/08 05:03:56;;;;;;;1.17;1.08;;;5.90;99.90;;;;;;5071133;28;20555;-72
2022/10/08 05:06:29;;;;;;;0.95;0.95;;;5.80;99.90;;;;;;5070724;28;20193;-71
2022/10/08 05:08:56;;;;;;;0.55;0.55;;;5.80;99.90;;;;;;5070972;28;20184;-72
2022/10/08 05:11:24;;;;;;;0.40;0.40;;;5.70;99.90;;;;;;5042769;28;20332;-72
2022/10/08 05:13:51;;;;;;;0.60;0.60;;;5.60;99.90;;;;;;5034981;28;20194;-72
2022/10/08 05:16:17;;;;;;;0.60;0.60;;;5.60;99.90;;;;;;5034976;28;20214;-72
2022/10/08 05:18:43;;;;;;;0.70;0.70;;;5.50;99.90;;;;;;5034436;28;20673;-72
2022/10/08 05:21:12;;;;;;;0.63;0.63;;;5.40;99.90;;;;;;5033502;28;20214;-72
2022/10/08 05:23:39;;;;;;;0.70;0.70;;;5.40;99.90;;;;;;5034635;28;20206;-73
2022/10/08 05:26:19;;;;;;;0.70;0.70;;;5.30;99.90;;;;;;5034732;28;20661;-72
2022/10/08 05:28:47;;;;;;;0.50;0.50;;;5.40;99.90;;;;;;5034756;28;20198;-72
2022/10/08 05:31:16;;;;;;;0.65;0.65;;;5.50;99.90;;;;;;5045370;28;20198;-72
2022/10/08 05:33:42;;;;;;;0.50;0.50;;;5.50;99.90;;;;;;5053104;28;20256;-72
2022/10/08 05:36:14;;;;;;;0.63;0.63;;;5.60;99.90;;;;;;5053217;28;20201;-72
2022/10/08 05:38:42;;;;;;;0.60;0.60;;;5.60;99.90;;;;;;5042206;28;20202;-73
2022/10/08 05:41:20;;;;;;;3.63;1.75;;;5.60;99.90;;;;;;5034376;28;20361;-73
2022/10/08 05:43:46;;;;;;;0.70;0.70;;;5.60;99.90;;;;;;5033154;28;20653;-72
2022/10/08 05:46:13;;;;;;;0.65;0.65;;;5.50;99.90;;;;;;5033023;28;20289;-72
2022/10/08 05:48:39;;;;;;;0.70;0.70;;;5.50;99.90;;;;;;5034101;28;20238;-72
2022/10/08 05:51:10;;;;;;;0.70;0.70;;;5.50;99.90;;;;;;5034340;28;20194;-72
2022/10/08 05:53:37;;;;;;;0.60;0.60;;;5.50;99.90;;;;;;5049436;28;20220;-72
2022/10/08 05:56:05;;;;;;;0.70;0.70;;;5.50;99.90;;;;;;5032896;28;20224;-72
2022/10/08 05:58:33;;;;;;;0.70;0.70;;;5.50;99.90;;;;;;5033999;28;20197;-72
2022/10/08 06:01:45;;;;;;;0.70;0.70;;;5.40;99.90;;;;;;5036389;28;20233;-72
2022/10/08 06:04:34;;;;;;;0.60;0.60;;;5.40;99.90;;;;;;5036421;28;20250;-73
2022/10/08 06:07:37;;;;;;;0.60;0.60;;;5.50;99.90;;;;;;5055893;28;20201;-73
2022/10/08 06:10:03;;;;;;;0.60;0.60;;;5.50;99.90;;;;;;5045623;28;20723;-73
2022/10/08 06:12:29;;;;;;;0.57;0.57;;;5.50;99.90;;;;;;5053569;28;20199;-72
2022/10/08 06:14:54;;;;;;;0.68;0.68;;;5.50;99.90;;;;;;5058873;28;20182;-74
2022/10/08 06:17:21;;;;;;;0.60;0.60;;;5.60;99.90;;;;;;5053300;28;20197;-70
2022/10/08 06:19:46;;;;;;;0.60;0.60;;;5.60;99.90;;;;;;5053469;28;20208;-71
2022/10/08 06:22:12;;;;;;;0.75;0.75;;;5.80;99.90;;;;;;5035468;28;20565;-71
2022/10/08 06:24:38;;;;;;;5.82;2.20;;;5.90;99.90;;;;;;5052746;28;20193;-71
2022/10/08 06:27:03;;;;;;;0.60;0.60;;;6.00;99.90;;;;;;5060974;28;20592;-72
2022/10/08 06:29:29;;;;;;;0.70;0.70;;;6.10;99.90;;;;;;5073314;28;20205;-71
2022/10/08 06:31:55;;;;;;;0.70;0.70;;;6.20;99.90;;;;;;5073489;28;20180;-71
2022/10/08 06:34:21;;;;;;;0.50;0.50;;;6.20;99.90;;;;;;5067084;28;20197;-71
2022/10/08 06:36:46;;;;;;;0.70;0.70;;;6.30;99.90;;;;;;5035395;28;20565;-71
2022/10/08 06:39:14;;;;;;;0.70;0.70;;;6.40;99.90;;;;;;5053329;28;20190;-71
2022/10/08 06:41:40;;;;;;;2.35;1.83;;;6.40;99.90;;;;;;5053051;28;20202;-71
2022/10/08 06:44:09;;;;;;;0.68;0.68;;;6.50;99.90;;;;;;5053210;28;20257;-72
2022/10/08 06:46:35;;;;;;;0.60;0.60;;;6.60;99.90;;;;;;5053044;28;20643;-71
2022/10/08 06:49:01;;;;;;;0.60;0.60;;;6.60;99.90;;;;;;5053214;28;20189;-71
2022/10/08 06:51:28;;;;;;;0.60;0.60;;;6.70;99.90;;;;;;5052895;28;20186;-71
2022/10/08 06:53:55;;;;;;;5.88;1.42;;;6.70;99.90;;;;;;5053044;28;20211;-71
2022/10/08 06:56:23;;;;;;;0.60;0.60;;;6.90;99.90;;;;;;5052844;28;20196;-71
2022/10/08 06:58:49;;;;;;;0.70;0.70;;;7.00;99.90;;;;;;5052950;28;20194;-71
2022/10/08 07:01:23;;;;;;;0.60;0.60;;;7.20;99.90;;;;;;5052804;28;20675;-71
2022/10/08 07:03:51;;;;;;;0.60;0.60;;;7.30;99.90;;;;;;5051463;28;20195;-71
2022/10/08 07:06:18;;;;;;;0.50;0.50;;;7.40;99.90;;;;;;5052771;28;20193;-71
2022/10/08 07:08:44;;;;;;;0.60;0.60;;;7.50;99.90;;;;;;5034597;28;20277;-71
2022/10/08 07:11:16;;;;;;;0.60;0.60;;;7.60;99.90;;;;;;5019371;28;20230;-70
2022/10/08 07:13:43;;;;;;;0.52;0.52;;;7.80;99.90;;;;;;4993307;28;20258;-71
2022/10/08 07:16:12;;;;;;;0.52;0.52;;;7.90;99.90;;;;;;4993411;28;20250;-72
2022/10/08 07:18:39;;;;;;;0.70;0.70;;;8.10;99.90;;;;;;4992938;28;20231;-71
2022/10/08 07:21:07;;;;;;;0.60;0.60;;;8.20;99.90;;;;;;5012899;28;20222;-72
2022/10/08 07:23:33;;;;;;;0.60;0.60;;;8.30;99.90;;;;;;5021821;28;20203;-71
2022/10/08 07:26:05;;;;;;;0.60;0.60;;;8.40;99.90;;;;;;5032534;28;20205;-71
2022/10/08 07:28:34;;;;;;;0.60;0.60;;;8.60;99.90;;;;;;5032373;28;20205;-71
2022/10/08 07:31:14;;;;;;;0.60;0.60;;;8.70;99.90;;;;;;5023043;28;20214;-71
2022/10/08 07:33:39;;;;;;;0.60;0.60;;;8.80;99.90;;;;;;5011215;28;20780;-72
2022/10/08 07:36:14;;;;;;;0.60;0.60;;;8.90;99.90;;;;;;5011280;28;20297;-71
2022/10/08 07:38:41;;;;;;;0.60;0.60;;;9.00;99.90;;;;;;5011153;28;20202;-71
2022/10/08 07:41:07;;;;;;;0.60;0.60;;;9.10;99.90;;;;;;5012482;28;20209;-71
2022/10/08 07:43:34;;;;;;;1.45;1.35;;;9.20;99.90;;;;;;5012178;28;20248;-71
2022/10/08 07:45:59;;;;;;;0.60;0.60;;;9.40;99.90;;;;;;5011019;28;20569;-71
2022/10/08 07:48:27;;;;;;;0.60;0.60;;;9.50;99.90;;;;;;5012198;28;20193;-71
2022/10/08 07:50:53;;;;;;;0.60;0.60;;;9.60;99.90;;;;;;5012371;28;20657;-72
2022/10/08 07:53:19;;;;;;;0.60;0.60;;;9.80;99.90;;;;;;5012246;28;20191;-71
2022/10/08 07:55:45;;;;;;;0.50;0.50;;;9.80;99.90;;;;;;5012164;28;20249;-72
2022/10/08 07:58:11;;;;;;;0.60;0.60;;;9.90;99.90;;;;;;5012272;28;20199;-72
2022/10/08 08:00:40;;;;;;;0.60;0.60;;;10.10;99.90;;;;;;5010499;28;20199;-71
2022/10/08 08:03:11;;;;;;;0.60;0.60;;;10.10;99.90;;;;;;5010855;28;20569;-71
2022/10/08 08:05:36;;;;;;;0.52;0.52;;;10.30;99.90;;;;;;5011919;28;20199;-71
2022/10/08 08:08:02;;;;;;;0.60;0.60;;;10.40;99.90;;;;;;5011941;28;20703;-72
2022/10/08 08:10:28;;;;;;;0.50;0.50;;;10.40;99.90;;;;;;5023849;28;20233;-73
2022/10/08 08:12:53;;;;;;;1.10;1.00;;;10.50;99.90;;;;;;5051502;28;20296;-71
2022/10/08 08:15:19;;;;;;;1.50;1.40;;;10.70;99.90;;;;;;5051529;28;20284;-71
2022/10/08 08:17:45;;;;;;;0.52;0.52;;;10.80;99.90;;;;;;5033614;28;20260;-72
2022/10/08 08:20:10;;;;;;;2.05;0.98;;;11.00;99.90;;;;;;5063643;28;20196;-72
2022/10/08 08:22:36;;;;;;;7.07;1.20;;;11.00;99.90;;;;;;5071281;28;20271;-72
2022/10/08 08:25:02;;;;;;;0.70;0.70;;;11.10;99.90;;;;;;5071401;28;20192;-72
2022/10/08 08:27:29;;;;;;;0.60;0.60;;;11.30;99.90;;;;;;5060039;28;20205;-72
2022/10/08 08:29:54;;;;;;;0.50;0.50;;;11.40;99.90;;;;;;5051309;28;20192;-71
2022/10/08 08:32:20;;;;;;;5.50;0.95;;;11.40;99.90;;;;;;5050047;28;20197;-71
2022/10/08 08:34:46;;;;;;;0.60;0.60;;;11.40;99.90;;;;;;5051674;28;20561;-72
2022/10/08 08:37:14;;;;;;;0.50;0.50;;;11.50;99.90;;;;;;5051478;28;20221;-72
2022/10/08 08:39:40;;;;;;;0.50;0.50;;;11.70;99.90;;;;;;5051047;28;20205;-72
2022/10/08 08:42:36;;;;;;;3.85;1.20;;;11.80;99.90;;;;;;5051345;28;20189;-72
2022/10/08 08:45:18;;;;;;;0.50;0.50;;;12.00;99.90;;;;;;5051220;28;20670;-72
2022/10/08 08:47:52;;;;;;;0.50;0.50;;;12.20;99.90;;;;;;5039343;28;20267;-72
2022/10/08 08:50:38;;;;;;;0.50;0.50;;;12.30;99.90;;;;;;5039876;28;20600;-72
2022/10/08 08:53:07;;;;;;;0.50;0.50;;;12.50;99.90;;;;;;5057697;28;20600;-72
2022/10/08 08:55:41;;;;;;;0.50;0.50;;;12.60;99.90;;;;;;5057528;28;20189;-72
2022/10/08 08:58:25;;;;;;;0.50;0.50;;;12.70;99.90;;;;;;5057694;28;20189;-72
2022/10/08 09:01:01;;;;;;;0.85;0.85;;;12.90;99.90;;;;;;5057620;28;20212;-72
2022/10/08 09:03:48;;;;;;;0.50;0.50;;;13.10;99.90;;;;;;5039537;28;20640;-72
2022/10/08 09:06:16;;;;;;;2.08;1.13;;;13.10;99.90;;;;;;5037707;28;20196;-72
2022/10/08 09:09:24;;;;;;;21.90;0.60;;;13.10;99.90;;;;;;5037457;28;20586;-72
2022/10/08 09:11:50;;;;;;;0.40;0.40;;;13.20;99.90;;;;;;4991903;28;20233;-73
2022/10/08 09:14:37;;;;;;;1.33;1.23;;;13.30;99.90;;;;;;4998233;28;20195;-72
2022/10/08 09:17:17;;;;;;;0.70;0.70;;;13.50;99.90;;;;;;5031934;28;20672;-74
2022/10/08 09:19:47;;;;;;;1.10;0.90;;;13.60;99.90;;;;;;5028398;28;20199;-74
2022/10/08 09:22:44;;;;;;;0.45;0.45;;;13.50;99.90;;;;;;5017876;28;20191;-73
2022/10/08 09:26:21;;;;;;;;;;;;;;;;;;;;;
2022/10/08 09:28:56;;;;;;;0.40;0.40;;;13.70;99.90;;;;;;4963468;29;20284;-73
2022/10/08 09:31:39;;;;;;;0.50;0.50;;;13.90;99.90;;;;;;5006190;28;20221;-73
2022/10/08 09:34:14;;;;;;;0.47;0.47;;;14.00;99.90;;;;;;5017727;28;20194;-73
2022/10/08 09:36:50;;;;;;;0.40;0.40;;;14.10;99.90;;;;;;5017551;28;20672;-74
2022/10/08 09:39:24;;;;;;;0.50;0.50;;;14.10;99.90;;;;;;5017719;28;20260;-73
2022/10/08 09:42:13;;;;;;;0.50;0.50;;;14.10;99.90;;;;;;5017542;28;20304;-73
2022/10/08 09:44:44;;;;;;;1.98;0.77;;;14.20;99.90;;;;;;5017413;28;20202;-74
2022/10/08 09:47:18;;;;;;;1.25;1.15;;;14.40;99.90;;;;;;5017507;28;20201;-74
2022/10/08 09:49:48;;;;;;;0.38;0.38;;;14.70;99.90;;;;;;5017508;28;20194;-71
2022/10/08 09:52:25;;;;;;;0.93;0.52;;;15.10;99.90;;;;;;5017464;28;20198;-69
2022/10/08 09:55:07;;;;;;;1.98;0.82;;;15.10;99.90;;;;;;5017497;28;20191;-73
2022/10/08 09:57:39;;;;;;;0.40;0.40;;;15.20;99.90;;;;;;5015173;28;20202;-73
2022/10/08 10:00:06;;;;;;;4.03;0.73;;;15.40;99.90;;;;;;5012846;28;20198;-74
2022/10/08 10:02:37;;;;;;;0.47;0.47;;;15.50;99.90;;;;;;5014055;28;20214;-71
2022/10/08 10:05:05;;;;;;;0.32;0.32;;;15.60;99.90;;;;;;5014364;28;20183;-73
2022/10/08 10:07:40;;;;;;;0.57;0.57;;;15.60;99.90;;;;;;5012637;28;20199;-74
2022/10/08 10:10:19;;;;;;;0.40;0.40;;;15.80;99.90;;;;;;5018597;28;20244;-74
2022/10/08 10:12:51;;;;;;;0.55;0.52;;;16.20;99.90;;;;;;5066663;28;20243;-74
2022/10/08 10:15:49;;;;;;;0.30;0.30;;;16.40;99.90;;;;;;5073704;28;20200;-73
2022/10/08 10:18:22;;;;;;;0.30;0.30;;;16.10;99.90;;;;;;5073077;28;20233;-74
2022/10/08 10:21:04;;;;;;;0.40;0.40;;;15.60;99.90;;;;;;5055273;28;20213;-75
2022/10/08 10:23:42;;;;;;;0.50;0.50;;;15.40;99.90;;;;;;5053365;28;20201;-74
2022/10/08 10:26:16;;;;;;;0.40;0.40;;;15.30;99.90;;;;;;5053628;28;20197;-75
2022/10/08 10:28:49;;;;;;;0.35;0.35;;;15.20;99.90;;;;;;5053329;28;20192;-74
2022/10/08 10:31:36;;;;;;;0.50;0.50;;;15.30;99.90;;;;;;5035550;28;20572;-74
2022/10/08 10:34:37;;;;;;;0.38;0.38;;;15.10;99.90;;;;;;5053308;28;20197;-74
2022/10/08 10:37:13;;;;;;;0.30;0.30;;;15.20;99.90;;;;;;5050167;28;20217;-74
2022/10/08 10:39:56;;;;;;;0.30;0.30;;;15.20;99.90;;;;;;5053115;28;20236;-74
2022/10/08 10:43:09;;;;;;;0.32;0.32;;;15.10;99.90;;;;;;5056055;28;20189;-73
2022/10/08 10:45:36;;;;;;;0.40;0.40;;;14.90;99.90;;;;;;5033467;28;20206;-76
2022/10/08 10:48:04;;;;;;;2.25;0.98;;;14.70;99.90;;;;;;5052985;28;20243;-76
2022/10/08 10:50:42;;;;;;;0.70;0.70;;;14.60;99.90;;;;;;5052820;28;20247;-75
2022/10/08 10:53:28;;;;;;;0.47;0.43;;;14.30;99.90;;;;;;5053072;28;20283;-75
2022/10/08 10:56:17;;;;;;;0.50;0.50;;;14.60;99.90;;;;;;5035043;28;20198;-75
2022/10/08 10:58:42;;;;;;;0.50;0.50;;;14.90;99.90;;;;;;5014878;28;20297;-75
2022/10/08 11:01:19;;;;;;;0.40;0.40;;;15.10;99.90;;;;;;5032841;28;20321;-74
2022/10/08 11:04:06;;;;;;;3.78;0.80;;;14.80;99.90;;;;;;5032870;28;20643;-75
2022/10/08 11:06:53;;;;;;;0.40;0.40;;;14.70;99.90;;;;;;5032520;28;20197;-75
2022/10/08 11:09:41;;;;;;;0.32;0.32;;;14.80;99.90;;;;;;5064025;28;20189;-74
2022/10/08 11:12:22;;;;;;;0.40;0.40;;;15.00;99.90;;;;;;5072248;28;20763;-75
2022/10/08 11:15:05;;;;;;;0.40;0.40;;;15.30;99.90;;;;;;5072548;28;20192;-74
2022/10/08 11:17:42;;;;;;;0.40;0.40;;;15.30;99.90;;;;;;5032489;28;20198;-74
2022/10/08 11:20:24;;;;;;;0.40;0.40;;;15.10;99.90;;;;;;5044750;28;20683;-75
2022/10/08 11:22:52;;;;;;;1.27;1.00;;;14.60;99.90;;;;;;5051153;28;20262;-75
2022/10/08 11:25:39;;;;;;;1.60;0.55;;;14.40;99.90;;;;;;5052242;28;20242;-74
2022/10/08 11:28:30;;;;;;;0.40;0.40;;;14.60;99.90;;;;;;5052348;28;20194;-75
2022/10/08 11:31:18;;;;;;;0.47;0.47;;;14.70;99.90;;;;;;5007786;28;20229;-75
2022/10/08 11:33:45;;;;;;;0.40;0.40;;;14.80;99.90;;;;;;5052083;28;20194;-75
2022/10/08 11:36:32;;;;;;;1.23;0.95;;;15.20;99.90;;;;;;5050803;28;20217;-75
2022/10/08 11:39:13;;;;;;;0.30;0.30;;;15.70;99.90;;;;;;5052214;28;20242;-75
2022/10/08 11:42:05;;;;;;;0.30;0.30;;;16.10;99.90;;;;;;5051780;28;20205;-75
2022/10/08 11:44:31;;;;;;;0.75;0.50;;;16.20;99.90;;;;;;5051791;28;20189;-75
2022/10/08 11:47:34;;;;;;;0.60;0.55;;;16.00;99.90;;;;;;5051946;28;20193;-75
2022/10/08 11:50:01;;;;;;;0.40;0.40;;;15.60;99.90;;;;;;5051904;28;20309;-75
2022/10/08 11:52:30;;;;;;;0.43;0.43;;;14.90;99.90;;;;;;5033576;28;20194;-75
2022/10/08 11:54:56;;;;;;;0.30;0.30;;;14.50;99.90;;;;;;5051864;28;20247;-74
2022/10/08 11:57:33;;;;;;;0.73;0.68;;;14.50;99.90;;;;;;5051657;28;20216;-74
2022/10/08 12:00:20;;;;;;;0.50;0.50;;;14.60;99.90;;;;;;5051617;28;20437;-75
2022/10/08 12:02:52;;;;;;;0.40;0.40;;;14.30;99.90;;;;;;5051711;28;20224;-74
2022/10/08 12:05:20;;;;;;;0.60;0.60;;;13.60;99.90;;;;;;5047143;28;20189;-75
2022/10/08 12:07:58;;;;;;;0.40;0.40;;;13.60;99.90;;;;;;5071600;28;20216;-75
2022/10/08 12:10:26;;;;;;;2.63;0.70;;;13.40;99.90;;;;;;5071239;28;20270;-75
2022/10/08 12:12:52;;;;;;;0.45;0.45;;;13.60;99.90;;;;;;5057163;28;20214;-75
2022/10/08 12:15:24;;;;;;;0.40;0.40;;;14.00;99.90;;;;;;5051518;28;20296;-75
2022/10/08 12:17:51;;;;;;;0.43;0.43;;;14.50;99.90;;;;;;5051342;28;20283;-74
2022/10/08 12:20:24;;;;;;;0.50;0.50;;;15.00;99.90;;;;;;5050868;28;20607;-75
2022/10/08 12:23:19;;;;;;;0.40;0.40;;;15.30;99.90;;;;;;5051368;28;20695;-75
2022/10/08 12:25:45;;;;;;;0.30;0.30;;;15.40;99.90;;;;;;5051337;28;20217;-75
2022/10/08 12:28:19;;;;;;;0.30;0.30;;;15.40;99.90;;;;;;5051420;28;20240;-75
2022/10/08 12:30:50;;;;;;;0.65;0.65;;;15.30;99.90;;;;;;5049847;28;20247;-75
2022/10/08 12:33:17;;;;;;;0.40;0.40;;;15.40;99.90;;;;;;5051309;28;20579;-76
2022/10/08 12:36:24;;;;;;;0.30;0.30;;;15.70;99.90;;;;;;5051090;28;20648;-75
2022/10/08 12:39:16;;;;;;;0.30;0.30;;;16.20;99.90;;;;;;5051196;28;20197;-75
2022/10/08 12:42:12;;;;;;;0.63;0.50;;;16.50;99.90;;;;;;5022913;28;20677;-75
2022/10/08 12:44:57;;;;;;;0.30;0.30;;;16.40;99.90;;;;;;5020081;28;20214;-75
2022/10/08 12:47:44;;;;;;;0.30;0.30;;;16.30;99.90;;;;;;5031016;28;20275;-75
2022/10/08 12:50:45;;;;;;;0.43;0.43;;;16.00;99.90;;;;;;5043180;28;20221;-75
2022/10/08 12:53:14;;;;;;;0.40;0.40;;;15.70;99.90;;;;;;5051118;28;20785;-75
2022/10/08 12:55:48;;;;;;;0.40;0.40;;;15.40;99.90;;;;;;5051006;28;20220;-75
2022/10/08 12:58:19;;;;;;;1.45;0.65;;;15.40;99.90;;;;;;5051046;28;20207;-75
2022/10/08 13:00:50;;;;;;;0.40;0.40;;;15.20;99.90;;;;;;5057473;28;20212;-75
2022/10/08 13:03:17;;;;;;;0.40;0.40;;;14.90;99.90;;;;;;5053111;28;20681;-75
2022/10/08 13:05:43;;;;;;;0.40;0.40;;;14.90;99.90;;;;;;5070849;28;20639;-75
2022/10/08 13:08:28;;;;;;;0.45;0.45;;;14.90;99.90;;;;;;5064457;28;20280;-75
2022/10/08 13:10:54;;;;;;;0.35;0.35;;;14.90;99.90;;;;;;5050520;28;20308;-75
2022/10/08 13:13:41;;;;;;;0.40;0.40;;;14.70;99.90;;;;;;5050657;28;20205;-74
2022/10/08 13:16:13;;;;;;;0.40;0.40;;;14.50;99.90;;;;;;5033050;28;20197;-75
2022/10/08 13:18:41;;;;;;;0.40;0.40;;;14.50;99.90;;;;;;5050362;28;20201;-75
2022/10/08 13:21:25;;;;;;;0.40;0.40;;;14.50;99.90;;;;;;5050680;28;20197;-75
2022/10/08 13:23:52;;;;;;;0.40;0.40;;;14.60;99.90;;;;;;5050796;28;20232;-75
2022/10/08 13:26:36;;;;;;;0.40;0.40;;;14.70;99.90;;;;;;5050759;28;20256;-75